createdAt,value
2023-03-13T00:02:22.659Z,3.10
2023-03-13T00:04:51.905Z,3.10
2023-03-13T00:07:27.839Z,2.80
2023-03-13T00:10:16.287Z,2.90
2023-03-13T00:12:45.296Z,3.00
2023-03-13T00:15:18.776Z,3.80
2023-03-13T00:17:47.393Z,3.70
2023-03-13T00:20:18.808Z,3.20
2023-03-13T00:22:53.440Z,2.60
2023-03-13T00:25:22.116Z,3.60
2023-03-13T00:27:50.756Z,3.20
2023-03-13T00:30:22.975Z,2.60
2023-03-13T00:32:56.651Z,3.40
2023-03-13T00:35:25.915Z,3.00
2023-03-13T00:37:54.791Z,3.40
2023-03-13T00:40:27.645Z,3.10
2023-03-13T00:42:56.740Z,2.80
2023-03-13T00:45:25.224Z,2.90
2023-03-13T00:47:54.549Z,2.70
2023-03-13T00:50:22.954Z,3.50
2023-03-13T00:52:51.563Z,3.80
2023-03-13T00:55:19.853Z,3.10
2023-03-13T00:57:48.133Z,3.40
2023-03-13T01:00:17.430Z,3.20
2023-03-13T01:02:45.891Z,3.60
2023-03-13T01:05:15.187Z,3.80
2023-03-13T01:07:43.696Z,3.60
2023-03-13T01:10:18.966Z,4.00
2023-03-13T01:12:47.212Z,3.90
2023-03-13T01:15:16.925Z,4.20
2023-03-13T01:17:50.018Z,4.50
2023-03-13T01:20:20.772Z,4.20
2023-03-13T01:22:49.228Z,4.50
2023-03-13T01:25:24.984Z,4.00
2023-03-13T01:27:55.197Z,4.50
2023-03-13T01:30:24.376Z,4.20
2023-03-13T01:32:55.043Z,4.70
2023-03-13T01:35:23.493Z,4.90
2023-03-13T01:37:55.160Z,4.70
2023-03-13T01:40:24.282Z,4.80
2023-03-13T01:42:59.288Z,4.40
2023-03-13T01:46:06.384Z,4.70
2023-03-13T01:49:06.193Z,4.70
2023-03-13T01:51:46.126Z,5.20
2023-03-13T01:54:28.652Z,4.50
2023-03-13T01:57:02.559Z,4.80
2023-03-13T01:59:34.250Z,4.80
2023-03-13T02:02:02.918Z,4.40
2023-03-13T02:04:36.810Z,5.10
2023-03-13T02:07:09.484Z,5.00
2023-03-13T02:09:38.072Z,4.80
2023-03-13T02:12:11.163Z,4.90
2023-03-13T02:14:42.327Z,4.80
2023-03-13T02:17:11.701Z,4.90
2023-03-13T02:19:52.095Z,5.20
2023-03-13T02:22:27.721Z,4.60
2023-03-13T02:25:11.553Z,4.60
2023-03-13T02:27:40.229Z,5.00
2023-03-13T02:30:09.888Z,5.00
2023-03-13T02:32:38.511Z,5.50
2023-03-13T02:35:09.197Z,4.90
2023-03-13T02:37:38.144Z,4.90
2023-03-13T02:40:11.874Z,4.80
2023-03-13T02:42:44.246Z,5.80
2023-03-13T02:45:16.495Z,5.10
2023-03-13T02:47:45.153Z,4.80
2023-03-13T02:50:13.964Z,4.70
2023-03-13T02:53:02.836Z,5.40
2023-03-13T02:55:35.197Z,5.30
2023-03-13T02:58:04.006Z,5.90
2023-03-13T03:03:04.648Z,6.90
2023-03-13T03:05:33.116Z,5.80
2023-03-13T03:08:02.423Z,6.50
2023-03-13T03:10:31.431Z,5.70
2023-03-13T03:13:01.223Z,5.80
2023-03-13T03:15:30.929Z,5.40
2023-03-13T03:17:59.658Z,4.40
2023-03-13T03:20:28.398Z,4.60
2023-03-13T03:22:58.622Z,4.00
2023-03-13T03:25:28.531Z,3.90
2023-03-13T03:27:57.316Z,4.90
2023-03-13T03:30:26.316Z,4.20
2023-03-13T03:32:54.681Z,3.90
2023-03-13T03:35:23.898Z,3.50
2023-03-13T03:37:53.795Z,3.50
2023-03-13T03:40:22.688Z,3.30
2023-03-13T03:42:53.010Z,3.20
2023-03-13T03:45:41.164Z,2.90
2023-03-13T03:48:10.656Z,3.20
2023-03-13T03:50:39.166Z,2.60
2023-03-13T03:53:13.981Z,2.70
2023-03-13T03:55:42.347Z,2.40
2023-03-13T03:58:10.825Z,3.00
2023-03-13T04:01:07.876Z,2.70
2023-03-13T04:03:36.634Z,2.50
2023-03-13T04:06:07.307Z,2.30
2023-03-13T04:08:36.495Z,2.80
2023-03-13T04:11:05.281Z,3.00
2023-03-13T04:13:38.577Z,3.10
2023-03-13T04:16:08.502Z,2.40
2023-03-13T04:18:38.003Z,3.50
2023-03-13T04:21:06.880Z,2.80
2023-03-13T04:23:46.526Z,3.30
2023-03-13T04:26:15.729Z,3.00
2023-03-13T04:28:44.613Z,2.90
2023-03-13T04:31:17.465Z,2.80
2023-03-13T04:34:04.408Z,3.60
2023-03-13T04:37:02.383Z,2.60
2023-03-13T04:39:53.954Z,2.70
2023-03-13T04:42:53.842Z,3.00
2023-03-13T04:46:01.064Z,2.80
2023-03-13T04:51:32.791Z,3.50
2023-03-13T04:54:21.643Z,2.80
2023-03-13T04:57:11.425Z,2.90
2023-03-13T04:59:59.491Z,2.90
2023-03-13T05:02:55.589Z,3.00
2023-03-13T05:08:36.520Z,3.50
2023-03-13T05:11:21.050Z,2.80
2023-03-13T05:14:11.851Z,3.40
2023-03-13T05:17:06.856Z,3.20
2023-03-13T05:19:54.579Z,3.60
2023-03-13T05:22:31.249Z,3.00
2023-03-13T05:25:19.757Z,3.20
2023-03-13T05:28:08.562Z,3.40
2023-03-13T05:31:06.362Z,3.10
2023-03-13T05:33:40.638Z,3.30
2023-03-13T05:36:27.964Z,3.30
2023-03-13T05:39:18.353Z,4.00
2023-03-13T05:44:39.205Z,4.20
2023-03-13T05:47:39.523Z,4.30
2023-03-13T05:50:08.702Z,3.50
2023-03-13T05:52:57.063Z,3.80
2023-03-13T05:55:38.018Z,4.00
2023-03-13T05:58:25.134Z,4.00
2023-03-13T06:01:12.252Z,4.00
2023-03-13T06:03:57.239Z,4.30
2023-03-13T06:06:26.514Z,4.00
2023-03-13T06:09:04.411Z,3.90
2023-03-13T06:11:35.050Z,4.20
2023-03-13T06:14:05.365Z,4.20
2023-03-13T06:16:57.097Z,4.20
2023-03-13T06:19:27.140Z,4.60
2023-03-13T06:22:02.045Z,4.90
2023-03-13T06:24:31.061Z,4.60
2023-03-13T06:26:59.517Z,3.90
2023-03-13T06:29:28.074Z,4.80
2023-03-13T06:31:56.441Z,5.00
2023-03-13T06:34:32.333Z,4.60
2023-03-13T06:37:01.034Z,4.00
2023-03-13T06:39:30.109Z,4.30
2023-03-13T06:41:58.903Z,3.70
2023-03-13T06:44:27.476Z,4.00
2023-03-13T06:46:55.931Z,3.80
2023-03-13T06:49:24.878Z,4.50
2023-03-13T06:51:59.271Z,3.60
2023-03-13T06:54:28.260Z,3.50
2023-03-13T06:56:56.431Z,3.60
2023-03-13T06:59:25.122Z,3.80
2023-03-13T07:01:53.599Z,4.00
2023-03-13T07:04:22.075Z,4.00
2023-03-13T07:06:52.312Z,4.00
2023-03-13T07:09:20.586Z,3.60
2023-03-13T07:11:52.879Z,4.50
2023-03-13T07:14:22.459Z,4.80
2023-03-13T07:16:50.885Z,4.60
2023-03-13T07:19:21.717Z,4.80
2023-03-13T07:21:50.561Z,5.30
2023-03-13T07:24:24.076Z,4.50
2023-03-13T07:27:04.933Z,5.40
2023-03-13T07:29:35.872Z,5.40
2023-03-13T07:32:04.835Z,5.30
2023-03-13T07:34:34.390Z,5.00
2023-03-13T07:37:05.618Z,5.70
2023-03-13T07:39:34.516Z,5.70
2023-03-13T07:42:07.589Z,4.90
2023-03-13T07:44:38.757Z,5.00
2023-03-13T07:47:07.707Z,6.20
2023-03-13T07:49:41.429Z,5.00
2023-03-13T07:52:10.469Z,6.00
2023-03-13T07:54:43.104Z,5.40
2023-03-13T07:57:11.786Z,5.60
2023-03-13T07:59:40.370Z,5.80
2023-03-13T08:02:10.139Z,5.80
2023-03-13T08:04:38.557Z,5.80
2023-03-13T08:07:10.292Z,5.60
2023-03-13T08:09:38.821Z,5.10
2023-03-13T08:12:09.321Z,6.00
2023-03-13T08:14:37.805Z,5.20
2023-03-13T08:17:06.595Z,4.70
2023-03-13T08:19:40.498Z,5.40
2023-03-13T08:22:08.734Z,4.60
2023-03-13T08:24:37.053Z,4.60
2023-03-13T08:27:05.425Z,4.00
2023-03-13T08:29:33.911Z,2.80
2023-03-13T08:32:05.045Z,2.40
2023-03-13T08:34:35.471Z,2.10
2023-03-13T08:37:04.257Z,1.50
2023-03-13T08:39:33.573Z,1.90
2023-03-13T08:42:02.252Z,1.80
2023-03-13T08:44:31.249Z,2.00
2023-03-13T08:47:00.231Z,1.90
2023-03-13T08:49:28.720Z,1.80
2023-03-13T08:51:57.297Z,2.60
2023-03-13T08:54:25.714Z,1.70
2023-03-13T08:56:54.270Z,1.60
2023-03-13T08:59:22.851Z,1.70
2023-03-13T09:01:56.034Z,1.30
2023-03-13T09:04:24.519Z,1.70
2023-03-13T09:06:53.507Z,1.60
2023-03-13T09:09:24.960Z,1.50
2023-03-13T09:11:55.998Z,2.00
2023-03-13T09:14:24.885Z,1.90
2023-03-13T09:16:56.748Z,2.00
2023-03-13T09:19:25.124Z,2.00
2023-03-13T09:21:57.607Z,2.10
2023-03-13T09:24:26.081Z,2.10
2023-03-13T09:27:01.117Z,2.00
2023-03-13T09:29:30.824Z,1.80
2023-03-13T09:32:00.017Z,2.00
2023-03-13T09:34:28.603Z,2.30
2023-03-13T09:36:57.389Z,2.00
2023-03-13T09:39:27.289Z,1.90
2023-03-13T09:42:04.521Z,2.20
2023-03-13T09:44:38.504Z,1.70
2023-03-13T09:47:16.193Z,1.90
2023-03-13T09:50:05.566Z,2.00
2023-03-13T09:52:36.619Z,2.10
2023-03-13T09:55:06.312Z,1.90
2023-03-13T09:57:38.078Z,1.90
2023-03-13T10:00:14.853Z,2.00
2023-03-13T10:02:45.725Z,1.70
2023-03-13T10:05:19.412Z,2.00
2023-03-13T10:07:47.756Z,2.10
2023-03-13T10:10:29.448Z,1.60
2023-03-13T10:13:00.134Z,2.10
2023-03-13T10:15:57.878Z,2.10
2023-03-13T10:18:27.553Z,1.60
2023-03-13T10:20:58.902Z,1.90
2023-03-13T10:26:18.001Z,1.70
2023-03-13T10:28:46.668Z,1.70
2023-03-13T10:31:22.044Z,1.70
2023-03-13T10:33:51.029Z,2.00
2023-03-13T10:36:20.606Z,2.20
2023-03-13T10:38:54.103Z,1.60
2023-03-13T10:41:32.029Z,1.80
2023-03-13T10:44:21.563Z,1.90
2023-03-13T10:46:51.741Z,2.00
2023-03-13T10:49:22.254Z,1.90
2023-03-13T10:51:55.075Z,2.40
2023-03-13T10:54:27.480Z,1.90
2023-03-13T10:57:08.824Z,2.50
2023-03-13T10:59:44.016Z,2.20
2023-03-13T11:02:25.223Z,2.30
2023-03-13T11:07:27.220Z,2.10
2023-03-13T11:10:20.664Z,1.80
2023-03-13T11:12:52.489Z,1.90
2023-03-13T11:15:41.652Z,1.90
2023-03-13T11:18:30.315Z,2.20
2023-03-13T11:21:08.704Z,2.10
2023-03-13T11:23:47.460Z,2.10
2023-03-13T11:26:15.831Z,2.30
2023-03-13T11:28:51.167Z,1.90
2023-03-13T11:31:24.931Z,2.00
2023-03-13T11:34:11.980Z,2.10
2023-03-13T11:36:52.679Z,2.10
2023-03-13T11:39:36.707Z,2.10
2023-03-13T11:42:17.844Z,2.20
2023-03-13T11:45:14.250Z,2.00
2023-03-13T11:47:53.862Z,2.10
2023-03-13T11:51:13.971Z,2.50
2023-03-13T11:54:10.070Z,1.60
2023-03-13T11:56:57.697Z,2.10
2023-03-13T11:59:33.039Z,2.10
2023-03-13T12:02:14.897Z,2.40
2023-03-13T12:07:34.930Z,1.70
2023-03-13T12:10:12.871Z,2.10
2023-03-13T12:12:59.336Z,1.90
2023-03-13T12:15:41.206Z,2.00
2023-03-13T12:18:15.240Z,1.60
2023-03-13T12:20:50.307Z,1.90
2023-03-13T12:23:29.577Z,2.10
2023-03-13T12:26:07.625Z,2.30
2023-03-13T12:29:02.312Z,2.00
2023-03-13T12:31:51.285Z,1.80
2023-03-13T12:34:27.599Z,1.60
2023-03-13T12:36:55.913Z,1.90
2023-03-13T12:39:34.815Z,1.80
2023-03-13T12:42:29.335Z,1.80
2023-03-13T12:44:58.631Z,1.60
2023-03-13T12:47:33.769Z,1.70
2023-03-13T12:50:37.888Z,1.80
2023-03-13T12:53:25.412Z,1.80
2023-03-13T12:56:12.744Z,1.70
2023-03-13T12:59:14.091Z,1.60
2023-03-13T13:01:47.769Z,1.60
2023-03-13T13:04:18.332Z,1.20
2023-03-13T13:07:07.021Z,1.80
2023-03-13T13:09:38.626Z,1.40
2023-03-13T13:14:52.380Z,1.30
2023-03-13T13:17:32.123Z,1.80
2023-03-13T13:20:23.746Z,1.90
2023-03-13T13:25:24.900Z,1.60
2023-03-13T13:27:54.506Z,1.80
2023-03-13T13:30:24.112Z,1.80
2023-03-13T13:33:19.088Z,1.50
2023-03-13T13:35:49.481Z,2.00
2023-03-13T13:38:30.617Z,2.10
2023-03-13T13:41:11.525Z,1.90
2023-03-13T13:43:46.333Z,1.70
2023-03-13T13:46:33.957Z,1.80
2023-03-13T13:52:33.272Z,1.90
2023-03-13T13:55:03.287Z,1.80
2023-03-13T13:57:33.201Z,1.70
2023-03-13T14:00:24.135Z,1.90
2023-03-13T14:02:54.110Z,1.50
2023-03-13T14:05:30.748Z,1.70
2023-03-13T14:08:08.118Z,1.70
2023-03-13T14:11:11.314Z,1.80
2023-03-13T14:13:41.099Z,2.00
2023-03-13T14:16:28.050Z,1.70
2023-03-13T14:19:00.178Z,1.60
2023-03-13T14:21:28.963Z,1.90
2023-03-13T14:23:57.547Z,1.90
2023-03-13T14:26:27.751Z,1.60
2023-03-13T14:29:03.258Z,1.80
2023-03-13T14:31:32.698Z,1.70
2023-03-13T14:34:08.484Z,1.60
2023-03-13T14:37:17.768Z,2.00
2023-03-13T14:39:49.181Z,1.50
2023-03-13T14:42:18.766Z,1.40
2023-03-13T14:44:48.855Z,2.10
2023-03-13T14:47:17.080Z,1.70
2023-03-13T14:49:46.256Z,1.80
2023-03-13T14:52:25.383Z,1.90
2023-03-13T14:54:56.116Z,1.60
2023-03-13T14:57:27.542Z,1.50
2023-03-13T15:02:32.587Z,1.90
2023-03-13T15:05:11.492Z,1.80
2023-03-13T15:07:51.598Z,1.70
2023-03-13T15:10:32.916Z,1.40
2023-03-13T15:13:19.740Z,1.80
2023-03-13T15:15:48.404Z,1.60
2023-03-13T15:18:26.780Z,1.40
2023-03-13T15:21:00.486Z,1.50
2023-03-13T15:23:30.395Z,1.60
2023-03-13T15:25:59.082Z,1.70
2023-03-13T15:28:27.666Z,1.50
2023-03-13T15:30:57.784Z,2.10
2023-03-13T15:33:28.422Z,1.70
2023-03-13T15:35:57.003Z,2.00
2023-03-13T15:38:26.657Z,1.80
2023-03-13T15:40:55.189Z,1.80
2023-03-13T15:43:23.771Z,1.90
2023-03-13T15:45:52.719Z,1.40
2023-03-13T15:48:25.763Z,1.50
2023-03-13T15:50:59.284Z,1.70
2023-03-13T15:53:29.718Z,1.70
2023-03-13T15:56:00.541Z,1.70
2023-03-13T15:58:29.733Z,1.80
2023-03-13T16:00:58.326Z,2.00
2023-03-13T16:03:28.510Z,1.80
2023-03-13T16:05:57.206Z,1.70
2023-03-13T16:08:36.395Z,2.00
2023-03-13T16:11:05.900Z,1.50
2023-03-13T16:13:34.323Z,1.60
2023-03-13T16:18:47.394Z,1.90
2023-03-13T16:21:28.450Z,1.60
2023-03-13T16:23:56.905Z,1.90
2023-03-13T16:26:28.698Z,1.90
2023-03-13T16:28:58.070Z,1.50
2023-03-13T16:31:28.352Z,1.80
2023-03-13T16:33:56.812Z,1.50
2023-03-13T16:36:28.544Z,1.60
2023-03-13T16:41:29.487Z,1.60
2023-03-13T16:43:58.064Z,1.80
2023-03-13T16:46:30.724Z,1.60
2023-03-13T16:48:59.932Z,1.40
2023-03-13T16:51:28.641Z,1.60
2023-03-13T16:53:57.518Z,1.60
2023-03-13T16:56:34.185Z,1.80
2023-03-13T16:59:03.965Z,1.70
2023-03-13T17:01:32.274Z,2.00
2023-03-13T17:04:01.193Z,1.80
2023-03-13T17:06:48.076Z,1.80
2023-03-13T17:09:19.033Z,1.70
2023-03-13T17:11:48.311Z,1.50
2023-03-13T17:14:16.781Z,1.90
2023-03-13T17:16:51.315Z,1.60
2023-03-13T17:19:20.531Z,1.90
2023-03-13T17:21:49.509Z,1.50
2023-03-13T17:24:17.776Z,1.80
2023-03-13T17:26:48.549Z,1.90
2023-03-13T17:29:18.976Z,1.70
2023-03-13T17:31:47.558Z,2.50
2023-03-13T17:34:20.334Z,1.40
2023-03-13T17:36:49.195Z,1.70
2023-03-13T17:39:17.463Z,1.40
2023-03-13T17:41:46.459Z,1.90
2023-03-13T17:44:15.253Z,1.90
2023-03-13T17:46:46.668Z,1.30
2023-03-13T17:49:17.250Z,1.80
2023-03-13T17:51:46.552Z,1.90
2023-03-13T17:54:16.014Z,1.60
2023-03-13T17:56:44.917Z,1.60
2023-03-13T17:59:15.754Z,1.60
2023-03-13T18:01:44.273Z,1.70
2023-03-13T18:04:13.336Z,1.70
2023-03-13T18:06:43.363Z,1.80
2023-03-13T18:09:19.160Z,1.40
2023-03-13T18:11:48.737Z,1.60
2023-03-13T18:14:17.594Z,1.50
2023-03-13T18:16:48.192Z,2.00
2023-03-13T18:19:22.701Z,1.70
2023-03-13T18:21:53.684Z,1.90
2023-03-13T18:24:28.220Z,1.50
2023-03-13T18:26:56.798Z,1.60
2023-03-13T18:29:29.465Z,1.80
2023-03-13T18:32:00.686Z,1.30
2023-03-13T18:34:29.091Z,1.70
2023-03-13T18:37:06.893Z,1.60
2023-03-13T18:39:35.787Z,1.70
2023-03-13T18:42:04.202Z,1.70
2023-03-13T18:44:33.777Z,1.70
2023-03-13T18:47:02.357Z,2.10
2023-03-13T18:49:31.242Z,1.90
2023-03-13T18:51:59.926Z,1.60
2023-03-13T18:54:30.562Z,1.60
2023-03-13T18:56:59.040Z,1.30
2023-03-13T18:59:27.727Z,1.70
2023-03-13T19:01:57.155Z,1.90
2023-03-13T19:04:25.503Z,2.00
2023-03-13T19:06:57.878Z,1.50
2023-03-13T19:09:42.691Z,1.80
2023-03-13T19:12:12.652Z,1.60
2023-03-13T19:14:41.035Z,1.40
2023-03-13T19:17:29.614Z,1.90
2023-03-13T19:20:01.958Z,1.60
2023-03-13T19:22:30.975Z,1.60
2023-03-13T19:24:59.328Z,1.90
2023-03-13T19:27:27.913Z,1.80
2023-03-13T19:29:56.194Z,1.40
2023-03-13T19:32:25.149Z,1.80
2023-03-13T19:34:53.598Z,1.60
2023-03-13T19:37:22.140Z,1.90
2023-03-13T19:39:51.042Z,1.80
2023-03-13T19:42:19.306Z,1.80
2023-03-13T19:44:50.139Z,1.70
2023-03-13T19:47:18.448Z,1.80
2023-03-13T19:49:49.983Z,1.50
2023-03-13T19:54:48.068Z,1.90
2023-03-13T19:57:18.275Z,1.50
2023-03-13T19:59:46.873Z,1.80
2023-03-13T20:02:17.686Z,1.70
2023-03-13T20:04:46.446Z,1.50
2023-03-13T20:07:14.762Z,1.50
2023-03-13T20:09:46.923Z,1.30
2023-03-13T20:12:17.759Z,1.60
2023-03-13T20:14:46.446Z,1.70
2023-03-13T20:17:14.901Z,1.80
2023-03-13T20:19:43.332Z,1.60
2023-03-13T20:22:11.802Z,1.70
2023-03-13T20:24:41.722Z,2.30
2023-03-13T20:27:10.079Z,1.80
2023-03-13T20:29:38.458Z,1.50
2023-03-13T20:32:07.340Z,1.90
2023-03-13T20:34:36.954Z,1.50
2023-03-13T20:37:05.539Z,1.50
2023-03-13T20:39:38.647Z,1.60
2023-03-13T20:42:08.530Z,1.50
2023-03-13T20:44:36.832Z,1.80
2023-03-13T20:47:06.423Z,2.30
2023-03-13T20:49:35.038Z,1.90
2023-03-13T20:52:05.237Z,1.90
2023-03-13T20:54:34.526Z,2.00
2023-03-13T20:57:08.958Z,1.80
2023-03-13T20:59:37.733Z,1.80
2023-03-13T21:02:06.793Z,1.60
2023-03-13T21:04:38.061Z,1.60
2023-03-13T21:07:06.756Z,1.70
2023-03-13T21:09:36.887Z,1.60
2023-03-13T21:12:05.969Z,1.70
2023-03-13T21:14:36.607Z,1.30
2023-03-13T21:17:05.036Z,1.50
2023-03-13T21:19:34.480Z,2.00
2023-03-13T21:22:03.275Z,2.80
2023-03-13T21:24:33.903Z,1.80
2023-03-13T21:27:03.098Z,2.00
2023-03-13T21:29:37.747Z,1.80
2023-03-13T21:32:07.354Z,1.70
2023-03-13T21:34:36.019Z,2.00
2023-03-13T21:37:06.135Z,1.90
2023-03-13T21:39:35.025Z,1.70
2023-03-13T21:42:04.630Z,1.70
2023-03-13T21:44:33.622Z,1.60
2023-03-13T21:47:03.076Z,2.10
2023-03-13T21:49:32.018Z,1.50
2023-03-13T21:52:00.297Z,2.10
2023-03-13T21:54:28.773Z,1.40
2023-03-13T21:56:57.598Z,1.60
2023-03-13T21:59:35.057Z,1.70
2023-03-13T22:02:05.179Z,1.80
2023-03-13T22:04:34.163Z,1.90
2023-03-13T22:07:03.158Z,1.50
2023-03-13T22:09:31.941Z,1.50
2023-03-13T22:12:05.014Z,1.30
2023-03-13T22:14:33.818Z,2.00
2023-03-13T22:17:02.102Z,1.50
2023-03-13T22:19:30.416Z,1.70
2023-03-13T22:22:00.390Z,1.60
2023-03-13T22:24:28.969Z,2.00
2023-03-13T22:26:57.664Z,1.50
2023-03-13T22:29:30.718Z,2.10
2023-03-13T22:31:59.128Z,1.50
2023-03-13T22:34:28.320Z,2.40
2023-03-13T22:36:58.650Z,1.80
2023-03-13T22:39:28.044Z,1.70
2023-03-13T22:41:56.736Z,2.10
2023-03-13T22:44:25.538Z,1.70
2023-03-13T22:46:54.075Z,1.80
2023-03-13T22:49:24.114Z,1.70
2023-03-13T22:51:52.389Z,1.80
2023-03-13T22:54:20.870Z,1.50
2023-03-13T22:56:49.555Z,1.50
2023-03-13T22:59:18.243Z,1.50
2023-03-13T23:01:46.621Z,1.50
2023-03-13T23:04:15.520Z,1.60
2023-03-13T23:06:43.785Z,1.80
2023-03-13T23:09:15.344Z,2.10
2023-03-13T23:11:44.024Z,1.60
2023-03-13T23:14:18.855Z,1.60
2023-03-13T23:16:47.642Z,1.80
2023-03-13T23:19:16.164Z,2.00
2023-03-13T23:21:45.626Z,1.70
2023-03-13T23:24:14.244Z,1.20
2023-03-13T23:26:42.801Z,1.10
2023-03-13T23:29:11.044Z,1.40
2023-03-13T23:31:40.474Z,1.50
2023-03-13T23:34:08.880Z,1.40
2023-03-13T23:36:37.842Z,1.40
2023-03-13T23:39:07.552Z,1.30
2023-03-13T23:41:37.676Z,1.40
2023-03-13T23:44:06.257Z,1.60
2023-03-13T23:46:35.246Z,1.50
2023-03-13T23:49:03.828Z,1.40
2023-03-13T23:51:32.828Z,1.60
2023-03-13T23:54:01.094Z,1.50
2023-03-13T23:56:31.523Z,1.30
2023-03-13T23:58:59.797Z,1.80
